Time;durP1;ratioP1;P1;durP2;ratioP2;P2;SDS_P1;SDS_P2;PMS_P1;PMS_P2;Temp;Humidity;BMP_temperature;BMP_pressure;BME280_temperature;BME280_humidity;BME280_pressure;Samples;Min_cycle;Max_cycle;Signal;HPM_P1;HPM_P2
2021/03/20 00:01:22;;;;;;;;;9.75;7.50;;;;;11.83;44.94;98722.94;4868720;28;104152;-77
2021/03/20 00:03:49;;;;;;;;;10.50;8.25;;;;;11.84;45.11;98727.31;4786976;28;103113;-76
2021/03/20 00:06:17;;;;;;;;;9.25;7.75;;;;;11.83;45.36;98722.94;4816595;28;103951;-77
2021/03/20 00:08:44;;;;;;;;;10.25;8.50;;;;;11.82;45.25;98726.69;4741935;28;102534;-77
2021/03/20 00:11:11;;;;;;;;;12.25;10.00;;;;;11.80;45.11;98723.31;4841654;28;105039;-77
2021/03/20 00:13:38;;;;;;;;;6.75;6.75;;;;;11.80;44.88;98736.88;4861189;28;102950;-77
2021/03/20 00:16:05;;;;;;;;;7.25;6.50;;;;;11.79;45.35;98737.94;4696552;28;106900;-76
2021/03/20 00:18:32;;;;;;;;;7.50;5.50;;;;;11.79;44.94;98743.34;4807596;28;106093;-76
2021/03/20 00:20:59;;;;;;;;;7.00;7.00;;;;;11.78;45.27;98736.25;4867464;28;105597;-76
2021/03/20 00:23:25;;;;;;;;;11.25;8.00;;;;;11.77;45.32;98740.00;4854996;28;104587;-77
2021/03/20 00:25:52;;;;;;;;;13.00;8.25;;;;;11.78;45.23;98744.38;4899989;28;103798;-77
2021/03/20 00:28:21;;;;;;;;;12.75;8.50;;;;;11.76;44.91;98743.75;4925899;28;102448;-76
2021/03/20 00:30:53;;;;;;;;;6.00;5.25;;;;;11.75;45.05;98742.09;4892385;28;103992;-77
2021/03/20 00:33:21;;;;;;;;;7.75;6.50;;;;;11.74;45.05;98754.81;4838735;28;102403;-76
2021/03/20 00:35:48;;;;;;;;;7.25;6.25;;;;;11.74;45.01;98751.25;4844551;28;103450;-77
2021/03/20 00:38:15;;;;;;;;;9.00;6.50;;;;;11.74;45.16;98756.69;4809032;28;102240;-76
2021/03/20 00:40:42;;;;;;;;;7.00;5.50;;;;;11.75;44.74;98752.94;4912517;28;104040;-76
2021/03/20 00:43:09;;;;;;;;;11.75;7.00;;;;;11.73;44.95;98761.25;4899487;28;102244;-76
2021/03/20 00:45:36;;;;;;;;;10.00;6.00;;;;;11.72;45.09;98756.88;4903762;28;103890;-77
2021/03/20 00:48:09;;;;;;;;;9.50;9.00;;;;;11.71;44.87;98754.34;4788635;28;104076;-77
2021/03/20 00:50:36;;;;;;;;;7.00;6.00;;;;;11.70;45.07;98750.81;4790362;28;104643;-76
2021/03/20 00:53:03;;;;;;;;;12.00;7.00;;;;;11.69;44.94;98754.56;4891754;28;102219;-76
2021/03/20 00:55:29;;;;;;;;;8.25;6.75;;;;;11.69;44.90;98753.72;4754083;28;104772;-81
2021/03/20 00:57:56;;;;;;;;;5.25;5.00;;;;;11.69;45.19;98746.41;4794223;28;104086;-81
2021/03/20 01:00:27;;;;;;;;;10.00;6.25;;;;;11.68;45.30;98757.44;4793614;28;104053;-81
2021/03/20 01:02:54;;;;;;;;;6.00;6.00;;;;;11.67;45.16;98764.75;4675478;28;102862;-80
2021/03/20 01:05:21;;;;;;;;;7.00;6.00;;;;;11.67;44.93;98755.78;4818226;28;102173;-81
2021/03/20 01:07:48;;;;;;;;;5.75;5.00;;;;;11.66;44.66;98770.38;4862599;28;104363;-80
2021/03/20 01:10:21;;;;;;;;;10.75;6.25;;;;;11.64;44.88;98762.44;4901704;28;104130;-81
2021/03/20 01:12:47;;;;;;;;;7.00;6.00;;;;;11.63;45.19;98771.59;4911296;28;102664;-81
2021/03/20 01:15:15;;;;;;;;;5.00;5.00;;;;;11.63;44.65;98777.84;4918687;28;102437;-81
2021/03/20 01:17:42;;;;;;;;;4.00;4.00;;;;;11.63;44.97;98780.56;4918031;28;104473;-81
2021/03/20 01:20:09;;;;;;;;;6.00;6.00;;;;;11.63;44.80;98788.69;4913883;28;104244;-81
2021/03/20 01:22:36;;;;;;;;;7.00;5.00;;;;;11.61;44.81;98782.66;4935299;28;102299;-81
2021/03/20 01:25:06;;;;;;;;;4.75;4.25;;;;;11.61;44.87;98779.13;4915049;28;102450;-81
2021/03/20 01:27:33;;;;;;;;;5.00;5.00;;;;;11.58;44.75;98776.78;4911325;28;103558;-81
2021/03/20 01:29:59;;;;;;;;;5.00;3.00;;;;;11.59;44.68;98781.19;4917844;28;104561;-81
2021/03/20 01:32:26;;;;;;;;;5.50;4.75;;;;;11.60;44.75;98791.81;4912281;28;102968;-80
2021/03/20 01:34:53;;;;;;;;;6.00;6.00;;;;;11.58;44.67;98790.34;4736556;28;102976;-76
2021/03/20 01:37:20;;;;;;;;;8.50;5.25;;;;;11.57;44.98;98788.69;4912954;28;104663;-76
2021/03/20 01:39:49;;;;;;;;;4.00;4.00;;;;;11.57;44.75;98800.31;4904051;28;104323;-77
2021/03/20 01:42:15;;;;;;;;;6.25;5.25;;;;;11.57;44.79;98799.53;4895975;28;102216;-77
2021/03/20 01:44:42;;;;;;;;;3.75;3.75;;;;;11.56;44.72;98793.25;4920417;28;103736;-77
2021/03/20 01:47:12;;;;;;;;;3.75;3.75;;;;;11.54;44.96;98795.31;4920044;28;102249;-77
2021/03/20 01:49:45;;;;;;;;;5.25;5.00;;;;;11.55;44.71;98807.84;4791586;28;104081;-77
2021/03/20 01:52:12;;;;;;;;;6.00;5.00;;;;;11.53;44.69;98799.06;4874454;28;102241;-76
2021/03/20 01:54:44;;;;;;;;;6.75;5.00;;;;;11.52;44.46;98800.13;4781659;28;102748;-76
2021/03/20 01:57:11;;;;;;;;;6.00;3.75;;;;;11.52;44.67;98802.84;4824746;28;102716;-77
2021/03/20 01:59:37;;;;;;;;;4.00;3.25;;;;;11.50;44.92;98802.19;4879029;28;104331;-76
2021/03/20 02:02:04;;;;;;;;;8.50;5.25;;;;;11.50;44.73;98810.31;4904497;28;106044;-76
2021/03/20 02:04:31;;;;;;;;;5.75;4.00;;;;;11.50;44.61;98807.59;4902753;28;103417;-76
2021/03/20 02:06:58;;;;;;;;;3.75;3.25;;;;;11.49;44.90;98803.22;4771342;28;102408;-76
2021/03/20 02:09:24;;;;;;;;;4.50;4.25;;;;;11.48;44.73;98806.16;4793981;28;109223;-76
2021/03/20 02:11:59;;;;;;;;;2.75;2.75;;;;;11.47;44.75;98808.00;4891079;28;103585;-76
2021/03/20 02:14:44;;;;;;;;;6.00;4.00;;;;;11.46;44.55;98811.75;4798549;28;102406;-77
2021/03/20 02:17:45;;;;;;;;;5.00;4.00;;;;;11.46;44.64;98809.03;4779741;28;104085;-77
2021/03/20 02:20:57;;;;;;;;;3.00;3.00;;;;;11.44;44.94;98811.09;4805546;28;109137;-77
2021/03/20 02:23:24;;;;;;;;;4.00;4.00;;;;;11.43;44.71;98809.47;4817322;28;103730;-76
2021/03/20 02:26:05;;;;;;;;;4.50;4.00;;;;;11.44;44.63;98811.09;4910131;28;103485;-77
2021/03/20 02:28:53;;;;;;;;;9.00;6.00;;;;;11.44;44.55;98824.66;4918817;28;102334;-77
2021/03/20 02:31:38;;;;;;;;;3.00;3.00;;;;;11.43;44.70;98827.56;4879304;28;105176;-77
2021/03/20 02:34:13;;;;;;;;;6.25;3.75;;;;;11.42;44.72;98840.28;4800781;28;102318;-80
2021/03/20 02:36:50;;;;;;;;;3.00;3.00;;;;;11.41;44.85;98830.47;4815290;28;102304;-80
2021/03/20 02:39:20;;;;;;;;;3.75;3.00;;;;;11.40;44.47;98836.06;4790829;28;105727;-81
2021/03/20 02:41:52;;;;;;;;;4.00;3.25;;;;;11.38;44.69;98844.41;4862430;28;104065;-81
2021/03/20 02:44:31;;;;;;;;;4.00;4.00;;;;;11.39;44.21;98839.84;4812861;28;102295;-81
2021/03/20 02:47:03;;;;;;;;;2.00;2.00;;;;;11.37;44.56;98842.75;4742301;28;102308;-80
2021/03/20 02:49:43;;;;;;;;;3.25;3.00;;;;;11.37;44.52;98844.59;4801812;28;102435;-80
2021/03/20 02:52:21;;;;;;;;;3.00;2.00;;;;;11.36;44.42;98837.50;4850206;28;103071;-81
2021/03/20 02:55:08;;;;;;;;;3.25;3.00;;;;;11.36;44.58;98841.06;4893599;28;102832;-80
2021/03/20 02:57:41;;;;;;;;;3.00;2.00;;;;;11.36;44.49;98840.22;4907608;28;102892;-80
2021/03/20 03:00:14;;;;;;;;;4.00;4.00;;;;;11.34;44.51;98845.84;4855751;28;102645;-81
2021/03/20 03:02:41;;;;;;;;;3.50;3.00;;;;;11.34;44.59;98848.56;4793099;28;104099;-80
2021/03/20 03:05:13;;;;;;;;;3.25;3.25;;;;;11.34;44.43;98851.28;4854130;28;103799;-80
2021/03/20 03:07:42;;;;;;;;;2.25;2.00;;;;;11.33;44.60;98846.88;4746350;28;105870;-81
2021/03/20 03:10:18;;;;;;;;;3.00;3.00;;;;;11.33;44.45;98846.88;4894163;28;102248;-81
2021/03/20 03:12:50;;;;;;;;;2.75;2.00;;;;;11.32;44.38;98856.03;4895591;28;104177;-81
2021/03/20 03:15:20;;;;;;;;;2.50;2.50;;;;;11.33;44.64;98854.16;4897469;28;102191;-80
2021/03/20 03:17:54;;;;;;;;;2.00;2.00;;;;;11.31;44.36;98865.19;4874891;28;102626;-81
2021/03/20 03:20:23;;;;;;;;;3.25;3.00;;;;;11.30;44.67;98863.50;4812879;28;102846;-80
2021/03/20 03:22:53;;;;;;;;;3.50;2.75;;;;;11.30;44.50;98871.63;4757494;28;104156;-80
2021/03/20 03:25:21;;;;;;;;;2.00;1.00;;;;;11.30;44.43;98868.13;4845173;28;102640;-81
2021/03/20 03:27:50;;;;;;;;;2.75;2.50;;;;;11.27;44.59;98861.22;4839239;28;103630;-80
2021/03/20 03:30:19;;;;;;;;;2.50;1.50;;;;;11.26;44.56;98867.66;4855598;28;103788;-81
2021/03/20 03:32:48;;;;;;;;;1.00;1.00;;;;;11.25;44.31;98867.88;4875131;28;104056;-80
2021/03/20 03:35:20;;;;;;;;;2.00;2.00;;;;;11.25;44.44;98871.41;4920908;28;103476;-77
2021/03/20 03:38:00;;;;;;;;;2.00;2.00;;;;;11.24;44.27;98867.03;4916269;28;102199;-76
2021/03/20 03:40:50;;;;;;;;;2.00;1.00;;;;;11.24;44.38;98879.72;4886014;28;102319;-77
2021/03/20 03:43:18;;;;;;;;;2.00;2.00;;;;;11.22;43.94;98882.63;4901353;28;105941;-77
2021/03/20 03:45:45;;;;;;;;;2.75;1.75;;;;;11.23;44.36;98891.56;4820106;28;103671;-77
2021/03/20 03:48:13;;;;;;;;;1.50;1.00;;;;;11.20;44.13;98882.00;4814476;28;102718;-76
2021/03/20 03:50:40;;;;;;;;;1.50;1.25;;;;;11.20;44.24;98887.41;4690071;28;106817;-77
2021/03/20 03:53:08;;;;;;;;;0.75;0.75;;;;;11.20;44.41;98895.53;4872001;28;104123;-77
2021/03/20 03:55:35;;;;;;;;;4.50;2.75;;;;;11.19;44.35;98904.69;4896245;28;103675;-77
2021/03/20 03:58:24;;;;;;;;;2.75;2.00;;;;;11.18;44.29;98900.28;4919180;28;102156;-76
2021/03/20 04:00:56;;;;;;;;;2.25;2.00;;;;;11.16;44.20;98899.66;4851948;28;102180;-76
2021/03/20 04:03:59;;;;;;;;;2.00;1.75;;;;;11.16;44.08;98902.38;4866825;28;105331;-76
2021/03/20 04:07:22;;;;;;;;;1.75;1.75;;;;;11.15;44.21;98903.41;4835555;28;102898;-76
2021/03/20 04:09:55;;;;;;;;;2.00;1.00;;;;;11.15;44.23;98916.94;4718838;28;102175;-76
2021/03/20 04:12:30;;;;;;;;;1.75;1.00;;;;;11.14;44.41;98913.38;4742912;28;102638;-77
2021/03/20 04:15:22;;;;;;;;;2.00;2.00;;;;;11.13;44.14;98927.09;4722104;28;109741;-76
2021/03/20 04:18:02;;;;;;;;;2.00;2.00;;;;;11.12;44.09;98922.75;4896633;28;103300;-76
2021/03/20 04:20:41;;;;;;;;;2.00;1.00;;;;;11.12;44.35;98939.00;4898076;28;103605;-76
2021/03/20 04:23:14;;;;;;;;;1.50;1.00;;;;;11.10;44.04;98939.16;4831905;28;104944;-76
2021/03/20 04:25:44;;;;;;;;;1.25;1.25;;;;;11.10;44.46;98932.91;4864125;28;104055;-76
2021/03/20 04:28:30;;;;;;;;;1.00;1.00;;;;;11.10;44.34;98932.91;4782570;28;102533;-76
2021/03/20 04:31:07;;;;;;;;;2.75;1.75;;;;;11.08;44.21;98941.22;4763655;28;117794;-76
2021/03/20 04:33:38;;;;;;;;;2.00;2.00;;;;;11.08;44.37;98953.91;4718874;28;105111;-76
2021/03/20 04:36:07;;;;;;;;;1.75;1.00;;;;;11.07;44.34;98952.25;4805188;28;104086;-76
2021/03/20 04:38:34;;;;;;;;;2.75;2.00;;;;;11.06;44.20;98961.41;4891124;28;103934;-76
2021/03/20 04:41:03;;;;;;;;;2.00;1.00;;;;;11.06;44.13;98972.22;4906625;28;102223;-76
2021/03/20 04:43:31;;;;;;;;;4.00;2.00;;;;;11.06;44.20;98980.34;4912673;28;103302;-77
2021/03/20 04:45:58;;;;;;;;;2.00;1.00;;;;;11.05;44.22;98973.25;4855184;28;104028;-77
2021/03/20 04:48:44;;;;;;;;;2.00;2.00;;;;;11.03;44.02;98975.34;4898968;28;103702;-76
2021/03/20 04:51:23;;;;;;;;;2.25;1.25;;;;;11.02;44.00;98981.78;4868727;28;102314;-76
2021/03/20 04:54:18;;;;;;;;;0.50;0.50;;;;;11.02;44.08;98985.31;4915809;28;103640;-77
2021/03/20 04:56:50;;;;;;;;;2.25;1.75;;;;;11.02;44.02;98990.72;4803216;28;109772;-77
2021/03/20 04:59:29;;;;;;;;;1.00;1.00;;;;;11.01;44.07;98985.50;4885376;28;102546;-76
2021/03/20 05:01:59;;;;;;;;;1.00;1.00;;;;;11.01;44.24;98997.16;4848311;28;102388;-76
2021/03/20 05:04:35;;;;;;;;;2.00;2.00;;;;;10.99;44.13;98991.09;4858747;28;102342;-81
2021/03/20 05:07:01;;;;;;;;;2.25;2.00;;;;;10.99;44.44;98990.25;4884114;28;108932;-80
2021/03/20 05:09:29;;;;;;;;;2.25;1.00;;;;;10.97;44.01;98997.75;4833112;28;104263;-80
2021/03/20 05:11:58;;;;;;;;;1.00;1.00;;;;;10.97;44.30;98992.34;4885419;28;103831;-81
2021/03/20 05:14:38;;;;;;;;;3.00;2.00;;;;;10.98;44.22;99004.84;4885509;28;103219;-81
2021/03/20 05:17:12;;;;;;;;;2.25;1.50;;;;;10.96;44.28;99005.03;4744151;28;108993;-81
2021/03/20 05:19:39;;;;;;;;;1.00;1.00;;;;;10.97;44.13;99003.16;4896217;28;103386;-81
2021/03/20 05:22:06;;;;;;;;;2.50;1.50;;;;;10.95;43.96;99006.06;4913919;28;102674;-80
2021/03/20 05:24:37;;;;;;;;;2.00;2.00;;;;;10.94;43.99;99008.97;4908049;28;102233;-81
2021/03/20 05:27:05;;;;;;;;;1.00;1.00;;;;;10.95;43.89;99021.44;4903415;28;104051;-80
2021/03/20 05:29:32;;;;;;;;;0.75;0.75;;;;;10.94;43.99;99020.59;4913726;28;103517;-81
2021/03/20 05:31:59;;;;;;;;;1.25;1.00;;;;;10.95;43.85;99016.03;4914956;28;102329;-81
2021/03/20 05:34:31;;;;;;;;;0.75;0.00;;;;;10.94;43.74;99015.19;4891287;28;102580;-77
2021/03/20 05:36:58;;;;;;;;;1.00;0.00;;;;;10.94;43.96;99030.63;4907196;28;104138;-77
2021/03/20 05:39:25;;;;;;;;;2.00;1.00;;;;;10.92;43.96;99025.38;4921633;28;103407;-76
2021/03/20 05:42:02;;;;;;;;;2.00;2.00;;;;;10.93;44.05;99028.94;4911959;28;102587;-77
2021/03/20 05:44:48;;;;;;;;;1.25;1.00;;;;;10.93;43.98;99028.94;4910028;28;104040;-76
2021/03/20 05:47:38;;;;;;;;;1.00;1.00;;;;;10.92;44.05;99033.50;4795182;28;104386;-76
2021/03/20 05:50:24;;;;;;;;;2.00;1.00;;;;;10.91;43.93;99042.66;4671319;28;102912;-76
2021/03/20 05:53:02;;;;;;;;;1.50;1.00;;;;;10.84;44.15;99024.69;4768075;28;102686;-76
2021/03/20 05:55:32;;;;;;;;;2.00;1.00;;;;;10.92;43.85;99043.47;4865288;28;102261;-76
2021/03/20 05:58:15;;;;;;;;;1.50;1.00;;;;;10.91;44.10;99047.22;4893749;28;104070;-77
2021/03/20 06:00:47;;;;;;;;;1.50;1.00;;;;;10.91;43.95;99044.50;4901825;28;102712;-77
2021/03/20 06:03:47;;;;;;;;;1.50;1.00;;;;;10.91;43.89;99047.22;4890467;28;102303;-77
2021/03/20 06:06:27;;;;;;;;;1.00;1.00;;;;;10.90;43.73;99045.53;4876900;28;103803;-77
2021/03/20 06:09:04;;;;;;;;;1.00;1.00;;;;;10.89;43.76;99049.28;4893974;28;103974;-77
2021/03/20 06:12:07;;;;;;;;;1.25;1.00;;;;;10.90;44.26;99045.53;4860619;28;102710;-77
2021/03/20 06:15:00;;;;;;;;;1.50;1.00;;;;;10.90;44.04;99056.34;4790631;28;103864;-76
2021/03/20 06:17:45;;;;;;;;;2.00;2.00;;;;;10.89;43.67;99050.13;4843934;28;103780;-76
2021/03/20 06:20:36;;;;;;;;;2.00;1.00;;;;;10.89;44.03;99055.53;4766390;28;108821;-76
2021/03/20 06:23:31;;;;;;;;;2.00;1.00;;;;;10.89;43.61;99049.28;4828951;28;102423;-76
2021/03/20 06:26:11;;;;;;;;;0.00;0.00;;;;;10.88;43.80;99061.97;4846690;28;103707;-77
2021/03/20 06:28:47;;;;;;;;;1.00;0.00;;;;;10.89;43.78;99060.13;4854062;28;102987;-75
2021/03/20 06:31:48;;;;;;;;;1.00;1.00;;;;;10.89;43.83;99065.53;4855810;28;103776;-76
2021/03/20 06:34:24;;;;;;;;;4.00;1.00;;;;;10.88;43.92;99070.09;4829361;28;103025;-77
2021/03/20 06:37:09;;;;;;;;;0.00;0.00;;;;;10.88;43.79;99080.06;4761660;28;103164;-77
2021/03/20 06:39:42;;;;;;;;;0.75;0.00;;;;;10.89;43.90;99087.16;4899982;28;102617;-77
2021/03/20 06:42:32;;;;;;;;;0.00;0.00;;;;;10.88;43.58;99085.47;4886125;28;104489;-76
2021/03/20 06:45:20;;;;;;;;;0.00;0.00;;;;;10.88;43.76;99080.06;4915203;28;103722;-77
2021/03/20 06:47:50;;;;;;;;;0.25;0.00;;;;;10.88;43.80;99083.63;4918908;28;102820;-77
2021/03/20 06:50:26;;;;;;;;;2.00;0.50;;;;;10.89;43.64;99089.88;4873940;28;102667;-76
2021/03/20 06:52:55;;;;;;;;;1.00;1.00;;;;;10.89;43.76;99089.88;4861698;28;103647;-76
2021/03/20 06:55:24;;;;;;;;;1.00;1.00;;;;;10.88;43.56;99082.78;4895067;28;102370;-77
2021/03/20 06:57:51;;;;;;;;;1.00;1.00;;;;;10.87;43.90;99083.78;4878624;28;102619;-76
2021/03/20 07:00:30;;;;;;;;;1.00;1.00;;;;;10.88;43.50;99090.91;4869534;28;102940;-77
2021/03/20 07:03:15;;;;;;;;;1.00;1.00;;;;;10.87;43.88;99095.47;4832895;28;104253;-77
2021/03/20 07:06:09;;;;;;;;;1.25;1.00;;;;;10.88;43.53;99090.91;4688065;29;102322;-76
2021/03/20 07:08:59;;;;;;;;;1.25;1.00;;;;;10.87;43.65;99094.63;4903357;28;102398;-76
2021/03/20 07:11:29;;;;;;;;;1.00;1.00;;;;;10.87;43.55;99095.47;4927735;28;102627;-77
2021/03/20 07:14:41;;;;;;;;;1.00;1.00;;;;;10.87;44.06;99098.16;4901523;28;104236;-77
2021/03/20 07:17:24;;;;;;;;;2.00;0.00;;;;;10.88;43.82;99099.00;4818003;28;103117;-77
2021/03/20 07:20:08;;;;;;;;;1.00;1.00;;;;;10.87;43.82;99100.88;4820222;28;102429;-77
2021/03/20 07:22:44;;;;;;;;;2.00;1.75;;;;;10.87;43.76;99106.28;4877074;28;102574;-75
2021/03/20 07:25:31;;;;;;;;;2.75;1.00;;;;;10.88;43.32;99116.09;4864857;28;105129;-76
2021/03/20 07:28:14;;;;;;;;;4.75;2.00;;;;;10.86;43.84;99104.59;4886453;28;102509;-76
2021/03/20 07:30:51;;;;;;;;;2.00;2.00;;;;;10.87;43.82;99110.84;4734076;28;103011;-76
2021/03/20 07:33:26;;;;;;;;;1.00;1.00;;;;;10.87;43.63;99106.28;4840265;28;105692;-77
2021/03/20 07:35:55;;;;;;;;;1.50;1.25;;;;;10.88;43.46;99115.25;4766131;28;105302;-77
2021/03/20 07:38:27;;;;;;;;;2.00;2.00;;;;;10.88;43.78;99118.78;4901182;28;108705;-76
2021/03/20 07:41:08;;;;;;;;;2.25;2.00;;;;;10.88;43.50;99116.09;4880357;28;102296;-76
2021/03/20 07:43:34;;;;;;;;;2.00;1.00;;;;;10.89;43.51;99115.06;4788104;28;102606;-75
2021/03/20 07:46:15;;;;;;;;;2.00;1.50;;;;;10.89;43.44;99119.63;4824268;28;104061;-76
2021/03/20 07:48:42;;;;;;;;;1.75;1.00;;;;;10.90;43.52;99132.09;4757142;28;110523;-76
2021/03/20 07:51:12;;;;;;;;;2.00;1.00;;;;;10.90;43.49;99132.09;4818221;28;103965;-75
2021/03/20 07:53:48;;;;;;;;;2.00;2.00;;;;;10.90;43.27;99138.34;4873664;28;102286;-75
2021/03/20 07:56:24;;;;;;;;;2.00;1.75;;;;;10.90;43.49;99130.25;4804064;28;106304;-76
2021/03/20 07:59:00;;;;;;;;;2.25;1.25;;;;;10.90;43.12;99135.66;4765284;28;103729;-76
2021/03/20 08:01:30;;;;;;;;;2.75;2.00;;;;;10.91;43.59;99141.91;4849214;28;102231;-76
2021/03/20 08:04:10;;;;;;;;;2.25;2.25;;;;;10.91;42.91;99133.78;4901368;28;102337;-76
2021/03/20 08:06:37;;;;;;;;;3.00;2.00;;;;;10.92;43.35;99140.88;4782892;28;108923;-81
2021/03/20 08:09:32;;;;;;;;;1.00;1.00;;;;;10.92;42.98;99143.59;4904665;28;102754;-81
2021/03/20 08:11:58;;;;;;;;;2.50;2.50;;;;;10.93;43.31;99142.56;4709859;28;102412;-81
2021/03/20 08:14:30;;;;;;;;;1.00;1.00;;;;;10.93;43.12;99153.38;4908485;28;102187;-81
2021/03/20 08:16:58;;;;;;;;;2.00;2.00;;;;;10.93;43.27;99147.97;4912373;28;105538;-81
2021/03/20 08:19:25;;;;;;;;;2.00;1.75;;;;;10.93;43.19;99143.41;4914576;28;102688;-81
2021/03/20 08:44:12;;;;;;;;;12.50;11.75;;;;;11.43;48.72;99139.78;4880059;28;102649;-81
2021/03/20 08:46:52;;;;;;;;;14.50;11.00;;;;;11.53;49.41;99152.97;4897868;28;103722;-81
2021/03/20 08:49:37;;;;;;;;;11.00;10.75;;;;;11.64;49.79;99147.91;4878572;28;102281;-81
2021/03/20 08:52:27;;;;;;;;;12.75;11.75;;;;;11.78;49.56;99156.19;4875077;28;103241;-81
2021/03/20 08:55:19;;;;;;;;;11.25;9.50;;;;;11.86;50.22;99162.28;4883475;28;103922;-81
2021/03/20 08:57:55;;;;;;;;;11.75;11.00;;;;;11.96;49.57;99151.97;4783385;28;102653;-78
2021/03/20 09:00:33;;;;;;;;;10.50;10.25;;;;;12.06;50.00;99159.75;4828090;28;103837;-82
2021/03/20 09:03:03;;;;;;;;;10.50;9.25;;;;;12.15;49.83;99150.44;4911358;28;102493;-82
2021/03/20 09:05:32;;;;;;;;;10.00;9.00;;;;;12.25;50.13;99144.66;4905932;28;104249;-81
2021/03/20 09:08:18;;;;;;;;;10.50;9.75;;;;;12.34;49.97;99141.59;4929903;28;102698;-81
2021/03/20 09:11:12;;;;;;;;;7.25;6.00;;;;;12.44;49.47;99144.78;4918383;28;102633;-81
2021/03/20 09:13:45;;;;;;;;;9.25;9.25;;;;;12.55;49.47;99145.25;4940643;28;102471;-81
2021/03/20 09:16:21;;;;;;;;;6.00;6.00;;;;;12.66;48.99;99147.41;4896660;28;104298;-74
2021/03/20 09:18:47;;;;;;;;;9.00;7.00;;;;;12.74;49.12;99142.63;4849092;28;102377;-74
2021/03/20 09:21:14;;;;;;;;;5.25;5.00;;;;;12.84;49.03;99140.38;4922396;28;103879;-74
2021/03/20 09:23:44;;;;;;;;;8.00;7.00;;;;;12.93;49.41;99146.47;4900140;28;102402;-74
2021/03/20 09:26:13;;;;;;;;;8.00;7.50;;;;;13.04;49.41;99153.22;4871132;28;108852;-74
2021/03/20 09:28:52;;;;;;;;;6.75;5.50;;;;;13.12;49.17;99158.50;4958827;28;102662;-74
2021/03/20 09:31:31;;;;;;;;;6.75;6.00;;;;;13.20;49.53;99163.72;4812497;28;102281;-74
2021/03/20 09:34:00;;;;;;;;;6.00;5.25;;;;;13.28;48.99;99160.84;4925512;28;105067;-74
2021/03/20 09:36:33;;;;;;;;;4.75;4.25;;;;;13.35;49.38;99156.25;4894905;28;104271;-74
2021/03/20 09:38:59;;;;;;;;;5.00;3.50;;;;;13.43;48.38;99160.66;4918911;28;102969;-74
2021/03/20 09:41:26;;;;;;;;;4.75;4.00;;;;;13.50;48.85;99166.97;4930253;28;102166;-74
2021/03/20 09:43:58;;;;;;;;;4.00;3.50;;;;;13.58;49.03;99164.03;4933222;28;102244;-74
2021/03/20 09:46:36;;;;;;;;;4.75;4.00;;;;;13.64;48.37;99163.22;4862142;28;106884;-74
2021/03/20 09:49:23;;;;;;;;;3.75;3.00;;;;;13.72;47.97;99176.63;4901773;28;102196;-75
2021/03/20 09:54:43;;;;;;;;;5.00;4.50;;;;;13.87;47.65;99162.84;4905656;28;102598;-74
2021/03/20 09:59:43;;;;;;;;;3.75;3.25;;;;;14.02;47.87;99161.56;4904245;28;102499;-74
2021/03/20 10:02:09;;;;;;;;;3.00;3.00;;;;;14.07;47.29;99167.22;4925225;28;103860;-74
2021/03/20 10:04:52;;;;;;;;;2.50;2.50;;;;;14.14;47.40;99178.91;4914051;28;103147;-74
2021/03/20 10:10:11;;;;;;;;;3.50;3.00;;;;;14.25;47.63;99175.59;5249898;23;102644;-74
2021/03/20 10:12:40;;;;;;;;;3.75;3.00;;;;;14.31;47.50;99176.63;4814840;28;102535;-74
2021/03/20 10:15:16;;;;;;;;;2.25;2.00;;;;;14.34;47.10;99175.34;4673540;28;102695;-74
2021/03/20 10:18:09;;;;;;;;;2.25;2.25;;;;;14.41;46.89;99179.75;4889016;28;104262;-74
2021/03/20 10:20:51;;;;;;;;;2.00;2.00;;;;;14.44;46.57;99181.25;4896691;28;103864;-74
2021/03/20 10:24:00;;;;;;;;;2.00;2.00;;;;;14.48;46.70;99168.88;4817095;28;102232;-74
2021/03/20 10:26:41;;;;;;;;;1.75;1.75;;;;;14.54;47.06;99177.03;4907582;28;102332;-74
2021/03/20 10:29:24;;;;;;;;;2.00;2.00;;;;;14.58;46.39;99180.19;4902409;28;104197;-74
2021/03/20 10:31:53;;;;;;;;;2.50;2.00;;;;;14.63;47.20;99180.38;4752115;28;102654;-74
2021/03/20 10:34:22;;;;;;;;;3.00;2.00;;;;;14.66;46.70;99180.78;4836723;28;102223;-74
2021/03/20 10:37:10;;;;;;;;;1.50;1.00;;;;;14.70;46.86;99171.13;4724093;29;103170;-74
2021/03/20 10:39:39;;;;;;;;;3.25;3.00;;;;;14.76;46.76;99185.78;4762980;28;105468;-74
2021/03/20 10:42:11;;;;;;;;;2.75;2.25;;;;;14.81;47.23;99183.25;4868301;28;102133;-74
2021/03/20 10:44:40;;;;;;;;;1.00;1.00;;;;;14.85;47.09;99189.09;4869312;28;103165;-74
2021/03/20 10:47:25;;;;;;;;;1.00;1.00;;;;;14.88;46.95;99189.50;4891431;28;102513;-74
2021/03/20 10:50:04;;;;;;;;;2.25;1.75;;;;;14.92;47.11;99187.19;4785042;28;104056;-73
2021/03/20 10:52:40;;;;;;;;;2.50;2.50;;;;;14.95;46.46;99184.06;4885340;28;102215;-74
2021/03/20 10:55:16;;;;;;;;;2.00;2.00;;;;;14.98;46.86;99184.47;4884720;28;102270;-74
2021/03/20 10:57:43;;;;;;;;;1.00;1.00;;;;;15.01;46.64;99183.19;4913910;28;103692;-74
2021/03/20 11:00:38;;;;;;;;;2.00;1.75;;;;;15.02;46.59;99174.81;4884628;28;104040;-74
2021/03/20 11:03:47;;;;;;;;;1.00;1.00;;;;;15.07;46.57;99176.88;4710916;28;104028;-74
2021/03/20 11:09:09;;;;;;;;;1.00;1.00;;;;;15.18;46.70;99179.75;4882864;23;102545;-74
2021/03/20 11:11:39;;;;;;;;;1.25;1.00;;;;;15.23;46.29;99175.53;4801455;28;103798;-74
2021/03/20 11:14:18;;;;;;;;;2.00;1.00;;;;;15.28;46.65;99175.72;4865562;28;104899;-81
2021/03/20 11:17:13;;;;;;;;;4.00;4.00;;;;;15.31;46.09;99173.41;4901749;28;102531;-82
2021/03/20 11:19:40;;;;;;;;;7.00;6.00;;;;;15.34;46.18;99172.97;4896756;28;102265;-80
2021/03/20 11:22:19;;;;;;;;;1.00;0.00;;;;;15.37;46.00;99171.69;4911298;28;103082;-81
2021/03/20 11:24:57;;;;;;;;;10.25;8.25;;;;;15.39;46.13;99175.06;4883021;28;102689;-80
2021/03/20 11:27:26;;;;;;;;;14.75;12.75;;;;;15.41;46.40;99168.31;4754037;28;103422;-80
2021/03/20 11:30:03;;;;;;;;;12.50;11.50;;;;;15.45;46.33;99174.16;4903356;28;102211;-80
2021/03/20 11:32:35;;;;;;;;;12.00;11.25;;;;;15.47;46.44;99167.47;4854897;28;104075;-80
2021/03/20 11:35:10;;;;;;;;;17.50;17.00;;;;;15.50;46.44;99167.03;4889937;28;102242;-81
2021/03/20 11:37:37;;;;;;;;;14.25;12.75;;;;;15.53;46.04;99165.78;4861084;28;102341;-80
2021/03/20 11:40:07;;;;;;;;;14.00;13.00;;;;;15.57;46.04;99156.94;4894884;28;103765;-80
2021/03/20 11:42:38;;;;;;;;;16.50;13.50;;;;;15.62;45.76;99159.03;4886949;28;104217;-80
2021/03/20 11:45:16;;;;;;;;;13.25;11.75;;;;;15.66;46.03;99159.41;4869356;28;102218;-74
2021/03/20 11:47:48;;;;;;;;;10.75;10.75;;;;;15.70;45.37;99158.75;4858251;28;102775;-74
2021/03/20 11:50:30;;;;;;;;;11.00;9.50;;;;;15.73;45.68;99158.28;4808525;28;103273;-74
2021/03/20 11:53:03;;;;;;;;;13.00;12.00;;;;;15.75;44.49;99158.09;4893144;28;104140;-75
2021/03/20 11:55:36;;;;;;;;;10.75;8.00;;;;;15.80;45.43;99150.09;4906735;28;102173;-74
2021/03/20 11:58:07;;;;;;;;;11.25;9.00;;;;;15.83;44.87;99158.66;4906166;28;103841;-75
2021/03/20 12:00:41;;;;;;;;;8.75;8.00;;;;;15.80;44.83;99158.25;4906402;28;102152;-75
2021/03/20 12:03:36;;;;;;;;;11.75;11.00;;;;;15.67;45.08;99159.16;4814971;28;104240;-75
2021/03/20 12:06:15;;;;;;;;;14.50;11.00;;;;;15.56;44.14;99157.16;4843344;28;104463;-75
2021/03/20 12:08:49;;;;;;;;;10.00;10.00;;;;;15.58;44.09;99152.31;4906528;28;102368;-76
2021/03/20 12:11:20;;;;;;;;;7.50;7.00;;;;;15.64;43.67;99154.16;4920648;28;102544;-75
2021/03/20 12:13:52;;;;;;;;;7.00;6.50;;;;;15.69;42.94;99143.44;4906830;28;104149;-75
2021/03/20 12:16:40;;;;;;;;;6.25;6.00;;;;;15.72;42.32;99144.88;4901389;28;104411;-79
2021/03/20 12:19:33;;;;;;;;;6.00;6.00;;;;;15.77;40.80;99147.78;4805753;28;102364;-79
2021/03/20 12:22:05;;;;;;;;;6.50;5.25;;;;;15.78;41.06;99142.13;4755801;28;102401;-79
2021/03/20 12:24:42;;;;;;;;;4.00;4.00;;;;;15.81;40.88;99132.63;4894224;28;104329;-79
2021/03/20 12:27:23;;;;;;;;;5.00;4.00;;;;;15.85;40.82;99136.63;4912337;28;103537;-79
2021/03/20 12:29:50;;;;;;;;;4.00;4.00;;;;;15.87;40.48;99138.06;4807263;28;102696;-80
2021/03/20 12:32:36;;;;;;;;;5.25;4.00;;;;;15.85;39.59;99137.44;4931247;28;102229;-84
2021/03/20 12:35:20;;;;;;;;;3.25;3.25;;;;;15.75;40.01;99130.81;4730341;28;108693;-84